Time;durP1;ratioP1;P1;durP2;ratioP2;P2;SDS_P1;SDS_P2;PMS_P1;PMS_P2;Temp;Humidity;BMP_temperature;BMP_pressure;BME280_temperature;BME280_humidity;BME280_pressure;Samples;Min_cycle;Max_cycle;Signal;HPM_P1;HPM_P2
2023/02/02 00:01:11;;;;;;;12.00;8.70;;;;;;;5.34;70.15;94950.56;5034860;28;20438;-79
2023/02/02 00:03:38;;;;;;;9.43;8.17;;;;;;;5.33;70.73;94944.53;5035138;28;20446;-79
2023/02/02 00:06:07;;;;;;;22.73;8.80;;;;;;;5.29;70.50;94932.66;5034706;28;20548;-79
2023/02/02 00:08:34;;;;;;;24.83;12.53;;;;;;;5.20;69.36;94941.00;5034818;28;20500;-79
2023/02/02 00:11:01;;;;;;;12.60;7.63;;;;;;;5.19;67.84;94953.19;5034748;28;20937;-79
2023/02/02 00:13:28;;;;;;;10.63;7.07;;;;;;;5.21;67.66;94947.91;5034821;28;20445;-80
2023/02/02 00:15:55;;;;;;;14.43;8.13;;;;;;;5.20;66.15;94941.00;5034976;28;20442;-79
2023/02/02 00:18:21;;;;;;;15.83;8.90;;;;;;;5.27;65.83;94940.53;5034504;28;20519;-79
2023/02/02 00:20:49;;;;;;;11.83;8.17;;;;;;;5.30;65.83;94936.91;5015622;28;20925;-79
2023/02/02 00:23:17;;;;;;;9.43;5.07;;;;;;;5.24;65.71;94934.72;5034381;28;21003;-80
2023/02/02 00:25:44;;;;;;;5.17;4.67;;;;;;;5.32;65.49;94945.44;5034085;28;20490;-80
2023/02/02 00:28:10;;;;;;;9.80;4.47;;;;;;;5.38;64.65;94939.03;5034285;28;20798;-79
2023/02/02 00:30:37;;;;;;;7.33;3.30;;;;;;;5.43;64.31;94940.38;5015566;28;20945;-79
2023/02/02 00:33:04;;;;;;;12.50;5.13;;;;;;;5.50;63.38;94941.69;5032817;28;20501;-79
2023/02/02 00:35:31;;;;;;;9.80;4.37;;;;;;;5.52;63.18;94946.78;5034181;28;20512;-80
2023/02/02 00:37:57;;;;;;;8.00;4.60;;;;;;;5.57;62.74;94955.97;4983103;28;20999;-79
2023/02/02 00:40:25;;;;;;;8.67;4.93;;;;;;;5.60;62.52;94947.97;5034101;28;20500;-80
2023/02/02 00:42:52;;;;;;;5.53;3.80;;;;;;;5.69;63.31;94958.72;5034211;28;20548;-79
2023/02/02 00:45:18;;;;;;;4.43;3.40;;;;;;;5.71;63.17;94962.03;5034031;28;20438;-79
2023/02/02 00:47:47;;;;;;;3.37;3.03;;;;;;;5.71;63.80;94962.88;5015441;28;20500;-79
2023/02/02 00:50:16;;;;;;;6.77;3.50;;;;;;;5.72;63.28;94968.91;5034079;28;20211;-79
2023/02/02 00:52:43;;;;;;;4.90;3.60;;;;;;;5.72;62.98;94964.53;5033946;28;20524;-80
2023/02/02 00:55:11;;;;;;;3.97;2.83;;;;;;;5.67;63.07;94957.97;5033934;28;20446;-79
2023/02/02 00:57:40;;;;;;;5.07;3.97;;;;;;;5.70;64.14;94957.78;5033753;28;20442;-80
2023/02/02 01:00:09;;;;;;;3.37;3.03;;;;;;;5.69;64.93;94953.50;5033792;28;20457;-79
2023/02/02 01:02:36;;;;;;;8.70;3.60;;;;;;;5.64;64.83;94958.19;5033555;28;20853;-79
2023/02/02 01:05:03;;;;;;;5.00;3.57;;;;;;;5.58;66.50;94952.44;5033462;28;20521;-79
2023/02/02 01:07:30;;;;;;;6.30;3.00;;;;;;;5.54;65.48;94950.13;5033730;28;20482;-80
2023/02/02 01:09:56;;;;;;;5.53;3.40;;;;;;;5.51;65.61;94948.56;5033338;28;20795;-79
2023/02/02 01:12:23;;;;;;;9.70;5.77;;;;;;;5.56;65.47;94935.25;5033625;28;20505;-80
2023/02/02 01:14:52;;;;;;;8.80;3.90;;;;;;;5.49;67.98;94928.75;5033448;28;20440;-79
2023/02/02 01:17:19;;;;;;;6.43;3.67;;;;;;;5.50;69.88;94933.88;5033445;28;20458;-79
2023/02/02 01:19:45;;;;;;;7.40;5.00;;;;;;;5.50;69.47;94933.06;5033291;28;20485;-80
2023/02/02 01:22:13;;;;;;;6.53;3.40;;;;;;;5.50;68.73;94928.69;5033402;28;20519;-80
2023/02/02 01:24:39;;;;;;;5.53;3.77;;;;;;;5.48;68.45;94929.69;5033375;28;20453;-79
2023/02/02 01:27:06;;;;;;;9.33;4.30;;;;;;;5.41;68.25;94925.81;5033019;28;21000;-79
2023/02/02 01:29:33;;;;;;;5.63;3.77;;;;;;;5.39;68.34;94919.88;5033471;28;20508;-79
2023/02/02 01:32:01;;;;;;;5.53;3.30;;;;;;;5.38;69.46;94918.22;5033246;28;20447;-79
2023/02/02 01:34:28;;;;;;;4.90;3.70;;;;;;;5.39;69.27;94914.66;5032969;28;20439;-79
2023/02/02 01:36:55;;;;;;;6.07;4.20;;;;;;;5.49;69.81;94920.94;5033341;28;20446;-79
2023/02/02 01:39:22;;;;;;;5.80;4.43;;;;;;;5.52;69.27;94910.34;5032940;28;20853;-80
2023/02/02 01:41:48;;;;;;;7.40;4.83;;;;;;;5.37;68.23;94911.34;5033081;28;20446;-79
2023/02/02 01:44:53;;;;;;;3.23;2.93;;;;;;;5.34;69.62;94901.97;5032656;28;20461;-80
2023/02/02 01:47:25;;;;;;;5.57;4.37;;;;;;;5.28;69.30;94912.75;5032712;28;20559;-80
2023/02/02 01:49:53;;;;;;;5.50;4.60;;;;;;;5.25;69.57;94902.56;5032702;28;20446;-79
2023/02/02 01:52:22;;;;;;;8.70;5.57;;;;;;;5.17;68.31;94903.03;4997694;28;20485;-79
2023/02/02 01:54:52;;;;;;;5.60;4.73;;;;;;;5.21;69.45;94901.09;5032854;28;20925;-81
2023/02/02 01:57:25;;;;;;;5.73;5.10;;;;;;;5.29;68.83;94894.44;5032619;28;20446;-79
2023/02/02 01:59:54;;;;;;;17.30;6.30;;;;;;;5.27;69.54;94898.09;5032857;28;20504;-80
2023/02/02 02:02:23;;;;;;;7.97;5.57;;;;;;;5.24;68.75;94900.88;5032769;28;20442;-79
2023/02/02 02:04:50;;;;;;;10.33;5.80;;;;;;;5.25;68.91;94893.00;5032519;28;20851;-79
2023/02/02 02:07:17;;;;;;;6.67;5.70;;;;;;;5.32;68.16;94890.81;5032682;28;20573;-80
2023/02/02 02:09:44;;;;;;;10.03;6.80;;;;;;;5.15;69.45;94891.03;5032458;28;20449;-79
2023/02/02 02:12:14;;;;;;;10.87;6.00;;;;;;;5.08;70.26;94892.38;5032403;28;20446;-79
2023/02/02 02:17:48;;;;;;;8.90;6.60;;;;;;;5.26;69.73;94894.66;5032531;28;20428;-80
2023/02/02 02:26:56;;;;;;;8.07;5.10;;;;;;;4.87;71.00;94903.19;4970884;28;20909;-79
2023/02/02 02:30:01;;;;;;;11.40;5.90;;;;;;;4.79;70.64;94904.59;4970974;28;21043;-79
2023/02/02 02:32:38;;;;;;;6.07;5.43;;;;;;;4.83;70.46;94903.47;4857298;29;20465;-79
2023/02/02 02:35:12;;;;;;;8.27;6.43;;;;;;;4.77;70.58;94907.28;4857252;29;20510;-79
2023/02/02 02:37:46;;;;;;;7.97;6.30;;;;;;;4.78;70.99;94903.75;4857391;29;20454;-79
2023/02/02 02:40:20;;;;;;;10.23;6.63;;;;;;;4.73;71.45;94887.63;4811430;29;20462;-79
2023/02/02 02:42:52;;;;;;;18.67;10.70;;;;;;;4.73;71.15;94897.19;4857353;29;20492;-79
2023/02/02 02:45:19;;;;;;;15.10;7.50;;;;;;;4.72;70.72;94892.91;4857244;29;20500;-79
2023/02/02 02:47:50;;;;;;;12.80;7.13;;;;;;;4.70;69.44;94895.63;4857249;29;20490;-79
2023/02/02 02:50:17;;;;;;;6.70;4.53;;;;;;;4.72;68.75;94891.16;4826799;29;20472;-80
2023/02/02 02:52:45;;;;;;;8.67;5.57;;;;;;;4.68;69.14;94894.03;4857290;29;20458;-79
2023/02/02 02:55:13;;;;;;;7.93;5.30;;;;;;;4.75;69.14;94896.16;4856844;29;20538;-79
2023/02/02 02:57:53;;;;;;;9.73;5.13;;;;;;;4.82;68.67;94896.59;4857234;29;20453;-80
2023/02/02 03:00:32;;;;;;;4.47;4.07;;;;;;;4.88;69.73;94899.66;4857229;29;20506;-79
2023/02/02 03:03:08;;;;;;;8.80;5.67;;;;;;;4.86;69.77;94901.50;4862282;29;20488;-79
2023/02/02 03:05:45;;;;;;;8.20;6.03;;;;;;;4.88;68.75;94896.22;4894459;29;20444;-79
2023/02/02 03:08:20;;;;;;;10.73;5.00;;;;;;;4.89;67.96;94898.72;4896176;29;20940;-79
2023/02/02 03:10:47;;;;;;;8.57;5.57;;;;;;;4.87;68.71;94891.94;5014086;28;20449;-79
2023/02/02 03:13:15;;;;;;;6.07;5.00;;;;;;;4.90;69.01;94884.78;5031836;28;20445;-79
2023/02/02 03:15:43;;;;;;;12.83;6.30;;;;;;;4.93;68.67;94891.59;5031644;28;20525;-79
2023/02/02 03:18:13;;;;;;;9.70;5.27;;;;;;;5.01;67.40;94891.94;5031630;28;20445;-80
2023/02/02 03:20:40;;;;;;;6.60;4.47;;;;;;;4.95;67.92;94889.72;5031572;28;20503;-80
2023/02/02 03:23:07;;;;;;;5.40;4.40;;;;;;;4.90;67.52;94882.19;5031422;28;20446;-79
2023/02/02 03:25:34;;;;;;;6.70;4.30;;;;;;;4.97;69.00;94886.09;5031231;28;20486;-80
2023/02/02 03:28:01;;;;;;;9.97;5.20;;;;;;;4.98;67.71;94879.97;4980498;28;20486;-80
2023/02/02 03:30:28;;;;;;;8.03;5.23;;;;;;;4.94;66.58;94888.91;5031732;28;20508;-78
2023/02/02 03:32:55;;;;;;;4.40;4.00;;;;;;;4.94;67.74;94888.06;5031512;28;20449;-79
2023/02/02 03:35:24;;;;;;;8.27;5.97;;;;;;;5.04;67.41;94883.94;5031840;28;20552;-79
2023/02/02 03:37:51;;;;;;;10.97;6.67;;;;;;;5.14;68.31;94889.38;5031672;28;20446;-80
2023/02/02 03:40:19;;;;;;;4.80;4.30;;;;;;;5.11;67.72;94889.56;5031572;28;20449;-80
2023/02/02 03:42:45;;;;;;;6.90;4.57;;;;;;;5.14;67.22;94895.41;5031358;28;20508;-79
2023/02/02 03:45:12;;;;;;;6.60;4.60;;;;;;;5.19;67.16;94902.91;5012893;28;20450;-80
2023/02/02 03:47:39;;;;;;;8.33;6.10;;;;;;;5.20;66.96;94897.66;5031237;28;20543;-80
2023/02/02 03:50:08;;;;;;;9.23;5.37;;;;;;;5.13;66.75;94885.13;5012863;28;20454;-79
2023/02/02 03:52:36;;;;;;;11.80;5.73;;;;;;;5.11;67.80;94894.78;5031456;28;20442;-80
2023/02/02 03:55:04;;;;;;;6.10;4.80;;;;;;;4.93;67.43;94905.44;5031312;28;20476;-80
2023/02/02 03:57:31;;;;;;;7.27;4.83;;;;;;;4.92;68.77;94901.16;5031224;28;20482;-78
2023/02/02 03:59:57;;;;;;;8.60;5.83;;;;;;;4.86;69.41;94901.50;5031289;28;20933;-79
2023/02/02 04:02:24;;;;;;;10.57;6.90;;;;;;;4.47;72.93;94916.97;5031214;28;20446;-79
2023/02/02 04:04:51;;;;;;;12.63;7.77;;;;;;;4.36;74.22;94907.25;5031231;28;20493;-80
2023/02/02 04:07:18;;;;;;;14.17;7.90;;;;;;;4.12;76.19;94916.50;5032935;28;20485;-79
2023/02/02 04:09:46;;;;;;;10.87;6.73;;;;;;;3.84;78.01;94904.28;5034230;28;20454;-81
2023/02/02 04:12:13;;;;;;;8.73;6.77;;;;;;;3.43;79.93;94899.69;5036153;28;20760;-77
2023/02/02 04:14:39;;;;;;;10.20;7.70;;;;;;;3.39;80.32;94909.41;5035670;28;20495;-80
2023/02/02 04:17:06;;;;;;;11.67;8.57;;;;;;;3.25;82.10;94913.72;5035547;28;20442;-79
2023/02/02 04:19:33;;;;;;;12.93;7.97;;;;;;;3.29;82.96;94915.22;5040350;28;20505;-79
2023/02/02 04:22:00;;;;;;;10.70;7.97;;;;;;;3.47;82.30;94921.97;5034292;28;20508;-78
2023/02/02 04:24:26;;;;;;;12.90;7.30;;;;;;;3.56;80.59;94915.44;5035297;28;20450;-78
2023/02/02 04:26:54;;;;;;;10.83;8.10;;;;;;;3.55;80.05;94917.19;5002142;28;20484;-79
2023/02/02 04:29:21;;;;;;;13.67;9.00;;;;;;;3.66;80.14;94921.75;5037067;28;20454;-78
2023/02/02 04:31:48;;;;;;;13.57;7.83;;;;;;;3.70;80.03;94918.88;5040600;28;20449;-79
2023/02/02 04:34:15;;;;;;;19.03;7.60;;;;;;;3.71;78.90;94920.56;5050687;28;20527;-79
2023/02/02 04:36:41;;;;;;;9.03;6.87;;;;;;;3.62;78.84;94923.69;5034828;28;20787;-79
2023/02/02 04:39:11;;;;;;;8.97;6.77;;;;;;;3.70;79.33;94925.84;5033943;28;20968;-79
2023/02/02 04:41:38;;;;;;;9.23;7.73;;;;;;;3.77;79.20;94915.97;5034460;28;20871;-78
2023/02/02 04:44:13;;;;;;;13.87;7.97;;;;;;;3.88;78.96;94919.59;5034486;28;20839;-80
2023/02/02 04:46:40;;;;;;;10.10;8.93;;;;;;;3.89;78.18;94903.09;5034745;28;20584;-80
2023/02/02 04:49:07;;;;;;;45.87;25.90;;;;;;;3.90;77.03;94927.28;5033689;28;20446;-80
2023/02/02 04:51:35;;;;;;;37.63;21.23;;;;;;;3.88;76.47;94936.94;5033563;28;20446;-79
2023/02/02 04:54:01;;;;;;;58.40;32.73;;;;;;;3.89;75.54;94928.22;5000468;28;20453;-80
2023/02/02 04:56:28;;;;;;;36.10;21.10;;;;;;;3.82;75.44;94939.88;5009773;28;20445;-80
2023/02/02 04:58:55;;;;;;;15.50;9.67;;;;;;;3.69;75.87;94932.78;5034752;28;20528;-79
2023/02/02 05:01:24;;;;;;;31.60;17.70;;;;;;;3.69;75.92;94927.59;5033538;28;20446;-81
2023/02/02 05:03:51;;;;;;;29.17;22.00;;;;;;;3.67;75.99;94936.38;5049356;28;20446;-79
2023/02/02 05:06:19;;;;;;;17.67;10.37;;;;;;;3.66;76.01;94925.19;5039175;28;20454;-79
2023/02/02 05:08:46;;;;;;;13.80;9.33;;;;;;;3.65;74.96;94931.28;5033800;28;20624;-80
2023/02/02 05:11:15;;;;;;;11.80;9.20;;;;;;;3.61;75.51;94927.19;5033238;28;20450;-80
2023/02/02 05:13:46;;;;;;;14.10;8.73;;;;;;;3.57;75.34;94923.13;5042902;28;20917;-80
2023/02/02 05:16:12;;;;;;;14.63;8.70;;;;;;;3.56;75.08;94931.81;5034321;28;20453;-80
2023/02/02 05:18:41;;;;;;;13.47;8.20;;;;;;;3.58;74.70;94929.97;5032158;28;20512;-80
2023/02/02 05:21:08;;;;;;;14.97;9.73;;;;;;;3.56;75.28;94928.41;4995120;28;20450;-80
2023/02/02 05:23:35;;;;;;;17.40;9.00;;;;;;;3.55;74.02;94932.75;5033231;28;20450;-79
2023/02/02 05:26:02;;;;;;;18.53;11.37;;;;;;;3.50;74.11;94927.00;5042757;28;20862;-78
2023/02/02 05:28:29;;;;;;;19.90;14.30;;;;;;;3.20;75.51;94920.94;5043211;28;20481;-78
2023/02/02 05:30:56;;;;;;;23.93;16.10;;;;;;;3.11;76.38;94924.84;5034054;28;20442;-79
2023/02/02 05:33:23;;;;;;;14.90;11.33;;;;;;;2.92;77.07;94940.59;5032648;28;20929;-80
2023/02/02 05:35:51;;;;;;;11.90;10.23;;;;;;;2.54;80.09;94924.50;5033696;28;20446;-79
2023/02/02 05:38:18;;;;;;;15.67;11.00;;;;;;;2.14;84.30;94930.91;5036513;28;20453;-81
2023/02/02 05:40:45;;;;;;;14.87;8.87;;;;;;;2.27;84.03;94937.13;5038144;28;20788;-79
2023/02/02 05:43:11;;;;;;;11.53;8.40;;;;;;;2.35;84.11;94939.34;5044328;28;20450;-78
2023/02/02 05:45:38;;;;;;;11.37;8.47;;;;;;;2.21;85.04;94942.63;5043620;28;20437;-80
2023/02/02 05:48:06;;;;;;;40.03;20.47;;;;;;;2.36;84.49;94946.19;5039300;28;20496;-79
2023/02/02 05:50:32;;;;;;;13.07;9.70;;;;;;;2.32;85.43;94950.69;5035730;28;20842;-81
2023/02/02 05:53:01;;;;;;;22.07;11.20;;;;;;;2.35;84.28;94955.72;5032069;28;20470;-81
2023/02/02 05:55:27;;;;;;;20.20;12.20;;;;;;;2.38;84.73;94952.94;5006500;28;20450;-78
2023/02/02 05:57:54;;;;;;;15.03;10.87;;;;;;;2.22;86.14;94959.00;5033291;28;20450;-77
2023/02/02 06:00:22;;;;;;;19.33;12.63;;;;;;;2.50;85.43;94964.41;5033647;28;20504;-78
2023/02/02 06:02:49;;;;;;;17.70;10.90;;;;;;;2.51;85.28;94965.25;5033067;28;20843;-78
2023/02/02 06:05:15;;;;;;;16.07;11.57;;;;;;;2.41;87.20;94957.97;5032703;28;20991;-78
2023/02/02 06:07:42;;;;;;;20.70;11.73;;;;;;;2.46;85.97;94962.91;5032647;28;20493;-79
2023/02/02 06:10:11;;;;;;;22.50;11.30;;;;;;;2.42;86.66;94951.03;5042669;28;20453;-78
2023/02/02 06:12:38;;;;;;;13.57;10.57;;;;;;;2.38;86.64;94950.38;5032923;28;20450;-78
2023/02/02 06:15:06;;;;;;;19.77;10.33;;;;;;;2.54;85.95;94967.69;5042354;28;20841;-79
2023/02/02 06:17:32;;;;;;;12.83;10.50;;;;;;;7.70;100.00;94957.91;4999414;28;20517;-77
2023/02/02 06:19:59;;;;;;;21.97;12.27;;;;;;;7.29;100.00;94966.94;5016873;28;20491;-80
2023/02/02 06:22:26;;;;;;;13.30;9.90;;;;;;;6.16;100.00;94966.88;5040123;28;20821;-80
2023/02/02 06:24:53;;;;;;;20.03;14.40;;;;;;;5.33;84.79;94978.34;5042524;28;20477;-78
2023/02/02 06:27:21;;;;;;;17.60;11.00;;;;;;;5.20;80.65;94987.81;5032674;28;20541;-80
2023/02/02 06:29:48;;;;;;;29.67;14.40;;;;;;;5.10;80.00;94999.75;5032784;28;20449;-80
2023/02/02 06:32:15;;;;;;;21.90;11.80;;;;;;;4.83;79.76;95000.50;5033081;28;20495;-80
2023/02/02 06:34:41;;;;;;;32.67;15.30;;;;;;;4.78;79.89;95001.72;5037696;28;20445;-80
2023/02/02 06:37:08;;;;;;;29.40;14.53;;;;;;;4.51;80.84;95002.44;5038546;28;20450;-79
2023/02/02 06:39:35;;;;;;;18.90;12.57;;;;;;;4.37;82.74;95004.19;5032976;28;20815;-80
2023/02/02 06:42:02;;;;;;;22.03;14.60;;;;;;;4.32;83.56;95000.06;5043625;28;20449;-81
2023/02/02 06:44:30;;;;;;;18.03;13.23;;;;;;;4.26;83.68;95003.03;5032901;28;20941;-79
2023/02/02 06:46:57;;;;;;;17.73;12.03;;;;;;;4.30;82.04;95009.72;5030654;28;20446;-84
2023/02/02 06:49:23;;;;;;;18.60;12.97;;;;;;;4.18;82.10;95013.03;5042599;28;20934;-80
2023/02/02 06:51:50;;;;;;;20.30;12.60;;;;;;;4.10;82.08;95017.84;5032809;28;20438;-78
2023/02/02 06:54:17;;;;;;;16.90;11.40;;;;;;;4.18;82.77;95012.19;5041795;28;21405;-79
2023/02/02 06:56:44;;;;;;;16.07;13.27;;;;;;;4.04;82.42;95011.22;5030869;28;20450;-79
2023/02/02 06:59:10;;;;;;;20.40;11.80;;;;;;;4.07;82.62;95019.78;5049855;28;20449;-80
2023/02/02 07:01:39;;;;;;;17.33;11.47;;;;;;;3.95;83.19;95006.56;5051213;28;20471;-81
2023/02/02 07:04:05;;;;;;;18.60;12.03;;;;;;;3.88;82.66;95009.59;5045413;28;20438;-80
2023/02/02 07:06:32;;;;;;;17.50;12.60;;;;;;;3.89;83.65;95029.44;5038773;28;20512;-80
2023/02/02 07:09:00;;;;;;;20.63;14.43;;;;;;;3.91;83.96;95020.66;5034872;28;20482;-80
2023/02/02 07:11:27;;;;;;;18.60;11.73;;;;;;;3.92;83.97;95021.47;5032876;28;20449;-83
2023/02/02 07:13:54;;;;;;;16.73;10.97;;;;;;;3.97;84.50;95027.25;5032023;28;20453;-82
2023/02/02 07:16:20;;;;;;;18.43;12.90;;;;;;;3.86;83.66;95037.41;5031185;28;20438;-80
2023/02/02 07:18:49;;;;;;;19.73;13.80;;;;;;;3.97;84.50;95019.44;5035228;28;20861;-82
2023/02/02 07:21:18;;;;;;;21.80;16.90;;;;;;;3.82;86.27;95010.78;5044789;28;20437;-80
2023/02/02 07:23:45;;;;;;;23.50;16.10;;;;;;;3.93;85.91;95016.19;5050735;28;20453;-80
2023/02/02 07:26:13;;;;;;;22.67;13.67;;;;;;;3.90;85.41;95028.53;5041030;28;20469;-82
2023/02/02 07:28:40;;;;;;;16.37;10.80;;;;;;;3.60;87.03;95031.91;5047309;28;20906;-82
2023/02/02 07:31:18;;;;;;;21.43;13.00;;;;;;;3.88;85.80;95022.59;5032492;28;20475;-81
2023/02/02 07:33:46;;;;;;;14.80;10.40;;;;;;;3.85;86.17;95028.78;5040578;28;20449;-80
2023/02/02 07:36:16;;;;;;;23.50;14.43;;;;;;;3.93;85.25;95029.19;5042149;28;20776;-81
2023/02/02 07:38:43;;;;;;;20.17;13.10;;;;;;;4.09;85.12;95033.50;5031807;28;20438;-80
2023/02/02 07:41:10;;;;;;;33.97;18.10;;;;;;;4.19;84.69;95030.28;5031078;28;20836;-80
2023/02/02 07:43:37;;;;;;;27.10;17.33;;;;;;;4.12;85.02;95025.53;5038970;28;20788;-80
2023/02/02 07:46:07;;;;;;;37.13;19.87;;;;;;;4.17;84.88;95033.91;5035051;28;20801;-81
2023/02/02 07:48:34;;;;;;;24.30;17.47;;;;;;;4.29;85.21;95031.41;5018518;28;20481;-81
2023/02/02 07:51:01;;;;;;;20.00;11.77;;;;;;;4.37;83.96;95011.97;5054210;28;20499;-81
2023/02/02 07:53:30;;;;;;;159.63;76.17;;;;;;;4.48;82.47;95020.81;5048208;28;20507;-81
2023/02/02 07:56:06;;;;;;;48.80;24.93;;;;;;;4.54;81.54;95014.41;5007725;28;20438;-81
2023/02/02 07:58:33;;;;;;;31.27;14.90;;;;;;;4.22;83.12;94992.91;5035655;28;20539;-81
2023/02/02 08:01:01;;;;;;;33.37;18.57;;;;;;;4.30;83.84;94988.94;5042226;28;20795;-81
2023/02/02 08:03:28;;;;;;;30.97;17.30;;;;;;;4.37;83.50;94993.78;5034880;28;20450;-81
2023/02/02 08:05:55;;;;;;;48.90;23.73;;;;;;;4.53;82.76;94984.16;4998950;28;20442;-80
2023/02/02 08:08:22;;;;;;;40.13;14.87;;;;;;;4.54;81.62;94988.41;5044821;28;20482;-81
2023/02/02 08:10:50;;;;;;;21.47;11.70;;;;;;;4.46;82.15;94975.06;5036871;28;20442;-79
2023/02/02 08:13:17;;;;;;;24.93;12.13;;;;;;;4.59;81.68;94987.22;5043321;28;20461;-80
2023/02/02 08:15:44;;;;;;;15.27;10.47;;;;;;;4.50;83.42;94977.38;5034203;28;20446;-81
2023/02/02 08:18:11;;;;;;;19.93;11.17;;;;;;;4.50;82.77;94966.97;5034920;28;20793;-81
2023/02/02 08:20:37;;;;;;;39.57;15.77;;;;;;;4.73;83.03;94962.16;5034329;28;20518;-81
2023/02/02 08:23:07;;;;;;;28.23;14.70;;;;;;;4.74;82.97;94972.47;4983478;28;20442;-80
2023/02/02 08:25:34;;;;;;;21.80;14.40;;;;;;;5.00;83.45;94970.03;5035170;28;20474;-80
2023/02/02 08:28:04;;;;;;;23.67;11.73;;;;;;;5.13;80.99;94970.94;5033901;28;20482;-80
2023/02/02 08:30:31;;;;;;;22.87;12.60;;;;;;;5.21;80.71;94964.34;5033729;28;20485;-81
2023/02/02 08:32:57;;;;;;;20.03;12.10;;;;;;;5.01;80.14;94963.91;5033970;28;20450;-81
2023/02/02 08:35:24;;;;;;;16.70;11.53;;;;;;;5.06;80.32;94967.88;5034002;28;20932;-82
2023/02/02 08:37:51;;;;;;;18.37;11.93;;;;;;;5.08;79.95;94967.78;5046503;28;20441;-80
2023/02/02 08:40:18;;;;;;;40.80;11.80;;;;;;;5.08;81.20;94963.44;5034504;28;20450;-83
2023/02/02 08:42:46;;;;;;;16.40;9.73;;;;;;;5.04;80.03;94963.72;5008573;28;20457;-80
2023/02/02 08:45:14;;;;;;;13.67;10.17;;;;;;;5.05;80.64;94962.78;5045404;28;20512;-80
2023/02/02 08:47:41;;;;;;;13.27;10.70;;;;;;;5.06;79.76;94964.47;5040179;28;20461;-85
2023/02/02 08:50:09;;;;;;;12.37;8.80;;;;;;;5.00;79.13;94957.88;5038517;28;20500;-86
2023/02/02 08:52:36;;;;;;;15.00;10.73;;;;;;;5.18;79.66;94953.28;5038947;28;20898;-84
2023/02/02 08:55:03;;;;;;;13.20;10.50;;;;;;;5.38;79.29;94954.63;5033137;28;20618;-82
2023/02/02 08:57:31;;;;;;;18.50;9.90;;;;;;;5.54;78.24;94963.16;5033893;28;20497;-83
2023/02/02 08:59:58;;;;;;;15.60;10.20;;;;;;;5.54;76.67;94945.75;5042216;28;20452;-83
2023/02/02 09:02:26;;;;;;;12.80;9.10;;;;;;;5.54;75.70;94957.94;5033694;28;20921;-85
2023/02/02 09:04:53;;;;;;;14.20;10.17;;;;;;;5.46;75.42;94957.56;5039899;28;20493;-80
2023/02/02 09:07:19;;;;;;;16.10;10.20;;;;;;;5.47;75.38;94965.28;5040768;28;20477;-81
2023/02/02 09:09:46;;;;;;;18.97;10.67;;;;;;;5.48;75.59;94943.53;5035800;28;20547;-81
2023/02/02 09:12:13;;;;;;;12.97;8.67;;;;;;;5.59;75.54;94948.06;5004990;28;20513;-81
2023/02/02 09:14:39;;;;;;;14.67;10.30;;;;;;;5.70;75.90;94945.59;5052495;28;20488;-85
2023/02/02 09:17:06;;;;;;;17.53;10.67;;;;;;;5.56;75.71;94948.25;5042256;28;20446;-81
2023/02/02 09:19:35;;;;;;;17.43;9.40;;;;;;;5.52;74.52;94946.78;5012802;28;20449;-85
2023/02/02 09:22:01;;;;;;;18.17;9.60;;;;;;;5.55;75.92;94936.19;5045003;28;20506;-79
2023/02/02 09:24:28;;;;;;;15.17;9.70;;;;;;;5.61;75.68;94935.78;5047441;28;20453;-78
2023/02/02 09:26:55;;;;;;;14.60;10.30;;;;;;;5.73;76.23;94942.78;5033327;28;20446;-80
2023/02/02 09:29:22;;;;;;;20.27;12.30;;;;;;;5.87;74.79;94941.91;5032361;28;20977;-79
2023/02/02 09:31:49;;;;;;;16.67;9.73;;;;;;;6.10;75.15;94914.38;5038835;28;20454;-82
2023/02/02 09:34:15;;;;;;;14.23;10.50;;;;;;;6.35;74.13;94921.34;5032638;28;20993;-79
2023/02/02 09:36:45;;;;;;;13.87;8.40;;;;;;;6.22;72.71;94914.38;5000209;28;20539;-81
2023/02/02 09:39:13;;;;;;;24.50;12.17;;;;;;;6.49;72.25;94918.66;5037876;28;20493;-82
2023/02/02 09:42:08;;;;;;;12.40;8.60;;;;;;;6.56;72.05;94932.94;5038025;28;20961;-80
2023/02/02 09:44:55;;;;;;;18.00;13.00;;;;;;;6.75;72.43;94914.25;5041172;28;20985;-80
2023/02/02 09:47:25;;;;;;;24.93;14.10;;;;;;;6.78;70.99;94904.44;5035313;28;20492;-79
2023/02/02 09:50:02;;;;;;;18.77;10.27;;;;;;;6.90;70.71;94926.22;5039195;28;20486;-78
2023/02/02 09:52:38;;;;;;;14.47;9.27;;;;;;;7.08;70.48;94919.72;5032420;28;20849;-81
2023/02/02 09:55:12;;;;;;;17.93;10.13;;;;;;;7.09;70.28;94910.94;5031954;28;20438;-79
2023/02/02 09:57:43;;;;;;;11.10;8.20;;;;;;;7.13;69.72;94914.16;4988962;28;20435;-80
2023/02/02 10:00:24;;;;;;;15.70;9.70;;;;;;;7.12;69.48;94896.84;5032025;28;20470;-83
2023/02/02 10:02:57;;;;;;;14.00;10.50;;;;;;;7.03;69.94;94894.91;4998381;28;20897;-80
2023/02/02 10:05:48;;;;;;;14.43;7.50;;;;;;;7.14;69.38;94901.00;5031948;28;20447;-81
2023/02/02 10:08:26;;;;;;;15.40;10.10;;;;;;;7.49;69.39;94894.19;5031354;28;20454;-88
2023/02/02 10:10:54;;;;;;;16.40;9.63;;;;;;;7.59;68.87;94880.38;5035389;28;20451;-84
2023/02/02 10:13:29;;;;;;;19.63;9.20;;;;;;;7.78;68.63;94890.28;5036349;28;20447;-88
2023/02/02 10:16:04;;;;;;;13.07;9.20;;;;;;;7.54;66.63;94886.88;5036768;28;20516;-87
2023/02/02 10:18:39;;;;;;;13.43;8.80;;;;;;;7.56;67.05;94883.22;4993546;28;20622;-79
2023/02/02 10:21:11;;;;;;;15.10;9.30;;;;;;;7.64;67.39;94869.59;5036973;28;20549;-77
2023/02/02 10:23:43;;;;;;;13.10;9.50;;;;;;;7.57;67.61;94868.38;5037483;28;20472;-79
2023/02/02 10:26:17;;;;;;;15.33;9.20;;;;;;;7.61;68.07;94856.75;5032309;28;20993;-78
2023/02/02 10:28:57;;;;;;;14.03;8.13;;;;;;;7.60;68.43;94855.91;5033301;28;20530;-78
2023/02/02 10:31:38;;;;;;;19.80;13.27;;;;;;;7.63;67.63;94858.31;5033417;28;20451;-79
2023/02/02 10:34:14;;;;;;;29.07;16.87;;;;;;;7.86;67.82;94846.16;5046328;28;20521;-78
2023/02/02 10:37:16;;;;;;;30.37;21.37;;;;;;;7.90;66.47;94847.59;5004785;28;21010;-78
2023/02/02 10:40:05;;;;;;;10.80;7.93;;;;;;;8.12;65.24;94845.97;5031305;28;20467;-82
2023/02/02 10:42:44;;;;;;;14.53;9.50;;;;;;;8.25;64.67;94834.47;5040959;28;20451;-78
2023/02/02 10:45:17;;;;;;;12.93;6.87;;;;;;;8.42;59.28;94832.38;5035193;28;20459;-79
2023/02/02 10:47:44;;;;;;;14.20;8.53;;;;;;;8.62;61.50;94829.84;5040727;28;20452;-82
2023/02/02 10:50:17;;;;;;;12.00;7.40;;;;;;;8.79;57.27;94812.03;5032775;28;21063;-79
2023/02/02 10:52:47;;;;;;;16.93;7.43;;;;;;;8.75;56.82;94808.81;5033128;28;20448;-79
2023/02/02 10:55:25;;;;;;;7.97;6.33;;;;;;;8.90;56.72;94799.72;5031656;28;20556;-80
2023/02/02 10:57:58;;;;;;;19.03;8.23;;;;;;;9.06;55.97;94795.91;5048907;28;20868;-80
2023/02/02 11:00:30;;;;;;;11.57;8.07;;;;;;;9.16;55.84;94789.78;5035949;28;20506;-81
2023/02/02 11:02:57;;;;;;;11.13;6.97;;;;;;;9.28;56.21;94791.44;5041985;28;20449;-86
2023/02/02 11:08:14;;;;;;;5.63;3.50;;;;;;;9.69;52.57;94779.34;5035669;28;20494;-80
2023/02/02 11:10:43;;;;;;;7.80;5.13;;;;;;;9.80;52.46;94776.63;5049847;28;20490;-80
2023/02/02 11:13:15;;;;;;;10.83;5.37;;;;;;;9.96;52.92;94772.75;5042258;28;20511;-78
2023/02/02 11:15:42;;;;;;;5.00;3.77;;;;;;;10.10;51.01;94767.97;5042133;28;20454;-86
2023/02/02 11:18:28;;;;;;;5.77;3.40;;;;;;;10.27;49.92;94757.91;5035756;28;20448;-78
2023/02/02 11:20:56;;;;;;;5.23;3.93;;;;;;;10.37;50.25;94759.59;5036234;28;20459;-78
2023/02/02 11:23:26;;;;;;;10.53;6.10;;;;;;;10.41;48.82;94758.38;5049451;28;20918;-83
2023/02/02 11:26:04;;;;;;;4.93;4.30;;;;;;;10.51;49.94;94740.03;5040427;28;20866;-85
2023/02/02 11:28:34;;;;;;;5.47;3.90;;;;;;;10.55;48.63;94742.25;5035772;28;20535;-81
2023/02/02 11:31:01;;;;;;;6.10;3.60;;;;;;;10.51;49.41;94748.75;5036128;28;20438;-80
2023/02/02 11:33:32;;;;;;;8.43;5.10;;;;;;;10.51;48.50;94735.63;5045768;28;20449;-80
2023/02/02 11:36:01;;;;;;;5.23;3.03;;;;;;;10.50;48.74;94727.91;5035557;28;20456;-79
2023/02/02 11:38:28;;;;;;;8.03;3.43;;;;;;;10.54;47.29;94732.75;5047637;28;20544;-80
2023/02/02 11:41:02;;;;;;;9.50;6.40;;;;;;;10.53;48.90;94720.59;5055621;28;20456;-80
2023/02/02 11:43:35;;;;;;;13.37;6.37;;;;;;;10.59;49.30;94721.84;5046534;28;20537;-80
2023/02/02 11:46:03;;;;;;;6.73;4.00;;;;;;;10.69;48.92;94717.44;5035658;28;20442;-79
2023/02/02 11:48:34;;;;;;;3.93;3.13;;;;;;;10.69;47.66;94716.59;5035151;28;20905;-80
2023/02/02 11:51:03;;;;;;;8.67;4.67;;;;;;;10.74;48.83;94709.19;5050998;28;20948;-81
2023/02/02 11:53:32;;;;;;;4.50;3.40;;;;;;;10.77;48.77;94714.16;5037656;28;20449;-79